createdAt,value
2022-12-04T00:01:06.227Z,24.50
2022-12-04T00:03:35.409Z,24.50
2022-12-04T00:06:07.627Z,24.40
2022-12-04T00:08:35.653Z,24.50
2022-12-04T00:11:06.960Z,24.50
2022-12-04T00:13:34.867Z,24.50
2022-12-04T00:16:04.691Z,24.50
2022-12-04T00:18:33.093Z,24.50
2022-12-04T00:21:00.709Z,24.50
2022-12-04T00:23:28.958Z,24.60
2022-12-04T00:26:04.318Z,24.50
2022-12-04T00:28:31.840Z,24.60
2022-12-04T00:30:59.357Z,24.60
2022-12-04T00:33:26.925Z,24.60
2022-12-04T00:36:01.263Z,24.70
2022-12-04T00:38:29.258Z,24.70
2022-12-04T00:40:56.823Z,24.80
2022-12-04T00:43:25.475Z,24.80
2022-12-04T00:45:53.069Z,24.80
2022-12-04T00:48:21.501Z,24.90
2022-12-04T00:50:49.752Z,24.90
2022-12-04T00:53:17.675Z,25.00
2022-12-04T00:58:20.889Z,25.00
2022-12-04T01:00:49.347Z,25.10
2022-12-04T01:03:17.132Z,25.20
2022-12-04T01:05:45.613Z,25.20
2022-12-04T01:08:13.936Z,25.20
2022-12-04T01:10:42.759Z,25.30
2022-12-04T01:13:10.372Z,25.40
2022-12-04T01:15:44.434Z,25.50
2022-12-04T01:18:12.560Z,25.50
2022-12-04T01:20:40.415Z,25.60
2022-12-04T01:23:08.067Z,25.70
2022-12-04T01:25:36.399Z,25.70
2022-12-04T01:28:04.078Z,25.80
2022-12-04T01:30:31.743Z,25.80
2022-12-04T01:33:01.230Z,25.80
2022-12-04T01:35:29.516Z,25.90
2022-12-04T01:37:58.106Z,26.00
2022-12-04T01:40:26.017Z,26.00
2022-12-04T01:42:53.719Z,26.10
2022-12-04T01:45:45.213Z,26.10
2022-12-04T01:48:32.862Z,26.10
2022-12-04T01:51:23.877Z,26.20
2022-12-04T01:53:52.965Z,26.20
2022-12-04T01:56:24.550Z,26.20
2022-12-04T01:58:54.080Z,26.30
2022-12-04T02:01:22.262Z,26.30
2022-12-04T02:03:53.779Z,26.30
2022-12-04T02:06:21.645Z,26.40
2022-12-04T02:08:49.167Z,26.40
2022-12-04T02:11:23.944Z,26.40
2022-12-04T02:14:00.177Z,26.50
2022-12-04T02:16:36.248Z,26.50
2022-12-04T02:19:37.012Z,26.60
2022-12-04T02:22:09.398Z,26.60
2022-12-04T02:24:45.346Z,26.70
2022-12-04T02:27:35.165Z,26.70
2022-12-04T02:30:21.639Z,26.80
2022-12-04T02:32:59.824Z,26.80
2022-12-04T02:35:29.709Z,26.90
2022-12-04T02:38:14.825Z,26.90
2022-12-04T02:40:46.771Z,27.00
2022-12-04T02:43:25.280Z,27.10
2022-12-04T02:46:09.290Z,27.20
2022-12-04T02:48:41.798Z,27.20
2022-12-04T02:51:12.242Z,27.30
2022-12-04T02:53:42.610Z,27.40
2022-12-04T02:56:16.523Z,27.40
2022-12-04T02:58:53.599Z,27.50
2022-12-04T03:01:23.065Z,27.50
2022-12-04T03:03:54.320Z,27.60
2022-12-04T03:06:22.783Z,27.50
2022-12-04T03:09:02.411Z,27.60
2022-12-04T03:11:32.972Z,27.60
2022-12-04T03:14:11.573Z,27.60
2022-12-04T03:16:41.189Z,27.70
2022-12-04T03:19:11.600Z,27.60
2022-12-04T03:21:41.380Z,27.60
2022-12-04T03:24:09.171Z,27.70
2022-12-04T03:26:38.681Z,27.70
2022-12-04T03:29:12.156Z,27.70
2022-12-04T03:31:46.573Z,27.80
2022-12-04T03:34:16.571Z,27.90
2022-12-04T03:36:52.431Z,28.00
2022-12-04T03:39:24.168Z,28.10
2022-12-04T03:42:21.461Z,28.10
2022-12-04T03:45:07.638Z,28.20
2022-12-04T03:48:07.694Z,28.30
2022-12-04T03:51:01.389Z,28.30
2022-12-04T03:53:35.642Z,28.30
2022-12-04T03:56:41.769Z,28.40
2022-12-04T03:59:22.370Z,28.40
2022-12-04T04:01:51.897Z,28.30
2022-12-04T04:04:22.635Z,28.40
2022-12-04T04:07:00.285Z,28.40
2022-12-04T04:09:30.831Z,28.40
2022-12-04T04:12:06.675Z,28.40
2022-12-04T04:14:57.897Z,28.40
2022-12-04T04:17:47.084Z,28.50
2022-12-04T04:20:37.939Z,28.60
2022-12-04T04:23:25.176Z,28.60
2022-12-04T04:25:53.820Z,28.70
2022-12-04T04:28:51.113Z,28.60
2022-12-04T04:31:25.458Z,28.70
2022-12-04T04:33:53.900Z,28.70
2022-12-04T04:36:25.145Z,28.70
2022-12-04T04:39:22.099Z,28.70
2022-12-04T04:41:49.586Z,28.70
2022-12-04T04:44:17.242Z,28.70
2022-12-04T04:46:48.612Z,28.70
2022-12-04T04:49:18.807Z,28.80
2022-12-04T04:51:47.738Z,28.80
2022-12-04T04:54:16.867Z,28.80
2022-12-04T04:56:45.595Z,28.90
2022-12-04T04:59:13.847Z,28.90
2022-12-04T05:01:42.573Z,28.90
2022-12-04T05:04:11.468Z,29.00
2022-12-04T05:06:39.026Z,29.10
2022-12-04T05:09:06.641Z,29.10
2022-12-04T05:11:34.188Z,29.20
2022-12-04T05:14:01.976Z,29.20
2022-12-04T05:16:29.655Z,29.20
2022-12-04T05:19:15.437Z,29.20
2022-12-04T05:21:43.388Z,29.20
2022-12-04T05:24:11.707Z,29.20
2022-12-04T05:26:39.233Z,29.30
2022-12-04T05:29:07.075Z,29.30
2022-12-04T05:31:34.654Z,29.40
2022-12-04T05:34:02.229Z,29.40
2022-12-04T05:36:30.388Z,29.40
2022-12-04T05:38:57.884Z,29.40
2022-12-04T05:41:25.415Z,29.40
2022-12-04T05:43:53.775Z,29.50
2022-12-04T05:46:21.433Z,29.50
2022-12-04T05:48:49.043Z,29.60
2022-12-04T05:51:16.744Z,29.60
2022-12-04T05:53:45.081Z,29.60
2022-12-04T05:56:12.933Z,29.60
2022-12-04T05:58:40.528Z,29.60
2022-12-04T06:01:12.182Z,29.60
2022-12-04T06:03:39.893Z,29.60
2022-12-04T06:06:21.766Z,29.60
2022-12-04T06:08:55.226Z,29.60
2022-12-04T06:11:27.325Z,29.70
2022-12-04T06:13:57.100Z,29.80
2022-12-04T06:16:27.348Z,29.90
2022-12-04T06:18:56.407Z,29.90
2022-12-04T06:21:24.704Z,29.90
2022-12-04T06:23:52.613Z,30.00
2022-12-04T06:26:21.538Z,30.00
2022-12-04T06:28:49.191Z,30.00
2022-12-04T06:31:19.958Z,30.00
2022-12-04T06:33:48.751Z,30.00
2022-12-04T06:36:17.741Z,30.10
2022-12-04T06:38:46.207Z,30.10
2022-12-04T06:41:14.909Z,30.10
2022-12-04T06:43:42.894Z,30.20
2022-12-04T06:46:16.256Z,30.10
2022-12-04T06:48:43.812Z,30.10
2022-12-04T06:51:11.442Z,30.10
2022-12-04T06:53:39.353Z,30.10
2022-12-04T06:56:07.982Z,30.20
2022-12-04T06:58:36.041Z,30.20
2022-12-04T07:01:11.252Z,30.10
2022-12-04T07:03:39.567Z,30.20
2022-12-04T07:06:11.257Z,30.20
2022-12-04T07:08:39.108Z,30.20
2022-12-04T07:11:07.022Z,30.20
2022-12-04T07:13:34.709Z,30.20
2022-12-04T07:16:03.080Z,30.20
2022-12-04T07:18:31.701Z,30.20
2022-12-04T07:21:07.911Z,30.20
2022-12-04T07:23:35.948Z,30.20
2022-12-04T07:26:12.280Z,30.20
2022-12-04T07:28:40.470Z,30.20
2022-12-04T07:31:11.786Z,30.20
2022-12-04T07:33:40.982Z,30.20
2022-12-04T07:36:09.731Z,30.20
2022-12-04T07:38:38.484Z,30.20
2022-12-04T07:41:07.589Z,30.20
2022-12-04T07:43:36.523Z,30.20
2022-12-04T07:46:17.005Z,30.20
2022-12-04T07:48:44.834Z,30.20
2022-12-04T07:51:16.754Z,30.20
2022-12-04T07:53:45.297Z,30.20
2022-12-04T07:56:14.030Z,30.20
2022-12-04T07:58:42.347Z,30.20
2022-12-04T08:01:22.134Z,30.30
2022-12-04T08:03:51.826Z,30.30
2022-12-04T08:06:20.310Z,30.30
2022-12-04T08:08:51.513Z,30.30
2022-12-04T08:11:22.758Z,30.40
2022-12-04T08:13:55.568Z,30.40
2022-12-04T08:16:23.190Z,30.40
2022-12-04T08:18:56.466Z,30.40
2022-12-04T08:21:27.961Z,30.40
2022-12-04T08:24:00.819Z,30.40
2022-12-04T08:26:30.333Z,30.50
2022-12-04T08:28:58.810Z,30.50
2022-12-04T08:31:28.015Z,30.40
2022-12-04T08:33:57.294Z,30.50
2022-12-04T08:36:25.476Z,30.50
2022-12-04T08:38:54.846Z,30.40
2022-12-04T08:41:24.312Z,30.40
2022-12-04T08:43:55.153Z,30.40
2022-12-04T08:46:23.668Z,30.40
2022-12-04T08:48:52.104Z,30.30
2022-12-04T08:51:22.135Z,30.30
2022-12-04T08:53:54.172Z,30.20
2022-12-04T08:56:21.766Z,30.20
2022-12-04T08:58:49.792Z,30.20
2022-12-04T09:01:19.629Z,30.20
2022-12-04T09:03:47.662Z,30.20
2022-12-04T09:06:15.903Z,30.20
2022-12-04T09:08:43.795Z,30.20
2022-12-04T09:11:12.775Z,30.20
2022-12-04T09:13:48.688Z,30.20
2022-12-04T09:16:18.404Z,30.20
2022-12-04T09:18:47.513Z,30.20
2022-12-04T09:21:16.843Z,30.20
2022-12-04T09:23:45.173Z,30.20
2022-12-04T09:26:39.120Z,30.20
2022-12-04T09:29:06.810Z,30.20
2022-12-04T09:31:35.688Z,30.20
2022-12-04T09:34:05.829Z,30.20
2022-12-04T09:36:36.214Z,30.20
2022-12-04T09:39:03.878Z,30.20
2022-12-04T09:41:35.435Z,30.10
2022-12-04T09:44:16.458Z,30.10
2022-12-04T09:46:51.434Z,30.10
2022-12-04T09:49:24.523Z,30.00
2022-12-04T09:51:53.959Z,30.00
2022-12-04T09:54:23.134Z,30.00
2022-12-04T09:56:55.833Z,30.00
2022-12-04T09:59:28.114Z,29.90
2022-12-04T10:02:34.510Z,29.90
2022-12-04T10:05:02.412Z,29.80
2022-12-04T10:07:35.402Z,29.80
2022-12-04T10:10:07.870Z,29.80
2022-12-04T10:12:55.499Z,29.80
2022-12-04T10:15:22.958Z,29.80
2022-12-04T10:18:11.434Z,29.70
2022-12-04T10:20:39.206Z,29.70
2022-12-04T10:23:33.593Z,29.70
2022-12-04T10:26:02.252Z,29.70
2022-12-04T10:28:40.142Z,29.70
2022-12-04T10:31:11.460Z,29.60
2022-12-04T10:33:42.088Z,29.60
2022-12-04T10:36:14.622Z,29.60
2022-12-04T10:38:51.862Z,29.50
2022-12-04T10:41:20.330Z,29.50
2022-12-04T10:43:50.029Z,29.50
2022-12-04T10:46:32.893Z,29.40
2022-12-04T10:49:07.850Z,29.40
2022-12-04T10:51:44.552Z,29.40
2022-12-04T10:54:33.639Z,29.30
2022-12-04T10:57:02.631Z,29.30
2022-12-04T10:59:30.924Z,29.30
2022-12-04T11:02:06.669Z,29.30
2022-12-04T11:04:35.908Z,29.30
2022-12-04T11:07:09.626Z,29.20
2022-12-04T11:09:38.194Z,29.20
2022-12-04T11:12:27.332Z,29.20
2022-12-04T11:15:25.063Z,29.10
2022-12-04T11:17:55.558Z,29.10
2022-12-04T11:20:24.434Z,29.10
2022-12-04T11:22:58.888Z,29.00
2022-12-04T11:25:28.081Z,29.00
2022-12-04T11:27:57.215Z,29.00
2022-12-04T11:30:34.847Z,28.90
2022-12-04T11:33:03.609Z,28.90
2022-12-04T11:35:32.717Z,28.90
2022-12-04T11:38:07.209Z,28.90
2022-12-04T11:40:34.919Z,28.90
2022-12-04T11:43:05.453Z,28.90
2022-12-04T11:45:33.653Z,28.90
2022-12-04T11:48:03.510Z,28.80
2022-12-04T11:50:46.535Z,28.80
2022-12-04T11:53:27.526Z,28.80
2022-12-04T11:56:08.177Z,28.90
2022-12-04T11:58:35.687Z,28.90
2022-12-04T12:01:21.661Z,28.90
2022-12-04T12:04:07.908Z,28.90
2022-12-04T12:06:39.922Z,28.90
2022-12-04T12:09:20.009Z,28.90
2022-12-04T12:11:51.543Z,28.80
2022-12-04T12:14:37.802Z,28.90
2022-12-04T12:17:06.836Z,28.80
2022-12-04T12:19:55.590Z,28.80
2022-12-04T12:22:28.707Z,28.80
2022-12-04T12:25:03.218Z,28.70
2022-12-04T12:27:50.695Z,28.70
2022-12-04T12:30:19.705Z,28.70
2022-12-04T12:32:59.488Z,28.70
2022-12-04T12:35:40.763Z,28.60
2022-12-04T12:38:32.521Z,28.60
2022-12-04T12:41:04.757Z,28.60
2022-12-04T12:43:38.748Z,28.60
2022-12-04T12:46:15.924Z,28.50
2022-12-04T12:49:02.051Z,28.50
2022-12-04T12:51:42.135Z,28.50
2022-12-04T12:54:28.002Z,28.50
2022-12-04T12:56:58.373Z,28.40
2022-12-04T12:59:29.391Z,28.50
2022-12-04T13:02:17.901Z,28.50
2022-12-04T13:04:50.361Z,28.40
2022-12-04T13:07:18.122Z,28.40
2022-12-04T13:09:49.501Z,28.40
2022-12-04T13:12:19.786Z,28.40
2022-12-04T13:14:49.145Z,28.40
2022-12-04T13:17:32.312Z,28.40
2022-12-04T13:20:04.129Z,28.30
2022-12-04T13:22:53.458Z,28.30
2022-12-04T13:25:36.809Z,28.30
2022-12-04T13:28:17.834Z,28.30
2022-12-04T13:30:48.195Z,28.30
2022-12-04T13:33:15.826Z,28.30
2022-12-04T13:35:58.665Z,28.30
2022-12-04T13:38:45.301Z,28.20
2022-12-04T13:41:19.475Z,28.20
2022-12-04T13:43:51.142Z,28.20
2022-12-04T13:46:40.471Z,28.20
2022-12-04T13:49:26.151Z,28.20
2022-12-04T13:51:54.118Z,28.10
2022-12-04T13:54:24.202Z,28.10
2022-12-04T13:56:53.872Z,28.10
2022-12-04T13:59:28.358Z,28.10
2022-12-04T14:01:57.498Z,28.10
2022-12-04T14:04:44.208Z,28.10
2022-12-04T14:07:30.384Z,28.10
2022-12-04T14:09:59.565Z,28.00
2022-12-04T14:12:29.517Z,28.00
2022-12-04T14:14:58.885Z,28.00
2022-12-04T14:17:29.154Z,28.00
2022-12-04T14:20:06.033Z,28.00
2022-12-04T14:22:35.885Z,27.90
2022-12-04T14:25:29.537Z,27.90
2022-12-04T14:27:57.667Z,27.90
2022-12-04T14:30:37.192Z,27.90
2022-12-04T14:33:22.153Z,27.80
2022-12-04T14:35:51.166Z,27.80
2022-12-04T14:38:22.911Z,27.80
2022-12-04T14:40:52.344Z,27.80
2022-12-04T14:43:23.026Z,27.80
2022-12-04T14:45:55.955Z,27.70
2022-12-04T14:48:32.445Z,27.70
2022-12-04T14:51:12.609Z,27.70
2022-12-04T14:53:43.982Z,27.70
2022-12-04T14:56:23.272Z,27.70
2022-12-04T14:58:52.054Z,27.60
2022-12-04T15:01:29.809Z,27.60
2022-12-04T15:04:00.278Z,27.60
2022-12-04T15:06:32.409Z,27.50
2022-12-04T15:09:19.459Z,27.50
2022-12-04T15:12:08.119Z,27.40
2022-12-04T15:14:42.863Z,27.40
2022-12-04T15:17:11.568Z,27.40
2022-12-04T15:19:40.007Z,27.30
2022-12-04T15:22:28.088Z,27.30
2022-12-04T15:24:56.054Z,27.30
2022-12-04T15:27:31.731Z,27.20
2022-12-04T15:30:01.365Z,27.20
2022-12-04T15:32:30.856Z,27.20
2022-12-04T15:35:04.400Z,27.10
2022-12-04T15:37:33.013Z,27.10
2022-12-04T15:40:01.685Z,27.10
2022-12-04T15:42:32.627Z,27.10
2022-12-04T15:45:09.665Z,27.10
2022-12-04T15:47:43.437Z,27.00
2022-12-04T15:50:14.013Z,27.00
2022-12-04T15:52:57.730Z,27.00
2022-12-04T15:55:26.190Z,26.90
2022-12-04T15:57:58.425Z,26.90
2022-12-04T16:00:38.142Z,26.90
2022-12-04T16:03:24.270Z,26.80
2022-12-04T16:06:03.223Z,26.90
2022-12-04T16:08:36.739Z,26.80
2022-12-04T16:11:07.018Z,26.80
2022-12-04T16:13:39.464Z,26.80
2022-12-04T16:16:09.369Z,26.80
2022-12-04T16:18:37.957Z,26.80
2022-12-04T16:21:05.696Z,26.80
2022-12-04T16:23:33.329Z,26.70
2022-12-04T16:26:00.832Z,26.70
2022-12-04T16:28:29.157Z,26.70
2022-12-04T16:30:56.772Z,26.70
2022-12-04T16:33:25.230Z,26.70
2022-12-04T16:35:52.768Z,26.60
2022-12-04T16:38:21.127Z,26.60
2022-12-04T16:40:49.340Z,26.70
2022-12-04T16:43:17.541Z,26.60
2022-12-04T16:45:48.794Z,26.60
2022-12-04T16:48:16.380Z,26.60
2022-12-04T16:50:44.661Z,26.60
2022-12-04T16:53:19.501Z,26.50
2022-12-04T16:55:49.101Z,26.50
2022-12-04T16:58:16.950Z,26.50
2022-12-04T17:00:46.956Z,26.50
2022-12-04T17:03:33.090Z,26.50
2022-12-04T17:06:01.103Z,26.40
2022-12-04T17:08:28.765Z,26.40
2022-12-04T17:10:57.109Z,26.40
2022-12-04T17:13:24.666Z,26.40
2022-12-04T17:15:52.281Z,26.40
2022-12-04T17:18:21.563Z,26.30
2022-12-04T17:20:49.662Z,26.30
2022-12-04T17:23:17.218Z,26.30
2022-12-04T17:25:45.191Z,26.30
2022-12-04T17:28:12.801Z,26.30
2022-12-04T17:30:41.171Z,26.30
2022-12-04T17:33:09.525Z,26.20
2022-12-04T17:35:37.317Z,26.20
2022-12-04T17:38:06.356Z,26.10
2022-12-04T17:40:34.930Z,26.10
2022-12-04T17:43:02.569Z,26.10
2022-12-04T17:45:30.152Z,26.10
2022-12-04T17:47:58.018Z,26.10
2022-12-04T17:50:25.797Z,26.10
2022-12-04T17:52:53.790Z,26.10
2022-12-04T17:55:21.611Z,26.00
2022-12-04T17:57:49.203Z,26.00
2022-12-04T18:00:16.862Z,26.00
2022-12-04T18:02:48.695Z,26.00
2022-12-04T18:05:19.159Z,26.00
2022-12-04T18:07:46.782Z,26.00
2022-12-04T18:10:14.561Z,26.00
2022-12-04T18:12:42.343Z,26.00
2022-12-04T18:15:10.757Z,25.90
2022-12-04T18:17:39.981Z,25.90
2022-12-04T18:20:08.242Z,25.90
2022-12-04T18:22:35.959Z,25.90
2022-12-04T18:25:04.578Z,25.90
2022-12-04T18:27:37.778Z,25.80
2022-12-04T18:30:09.548Z,25.80
2022-12-04T18:32:37.243Z,25.80
2022-12-04T18:35:04.869Z,25.80
2022-12-04T18:37:34.337Z,25.80
2022-12-04T18:40:06.267Z,25.80
2022-12-04T18:42:34.232Z,25.70
2022-12-04T18:45:02.548Z,25.70
2022-12-04T18:47:30.665Z,25.60
2022-12-04T18:49:58.462Z,25.60
2022-12-04T18:52:26.343Z,25.60
2022-12-04T18:54:54.547Z,25.60
2022-12-04T18:57:22.871Z,25.60
2022-12-04T18:59:50.665Z,25.50
2022-12-04T19:02:18.870Z,25.50
2022-12-04T19:04:47.673Z,25.50
2022-12-04T19:07:15.178Z,25.50
2022-12-04T19:12:31.900Z,25.50
2022-12-04T19:14:59.509Z,25.40
2022-12-04T19:17:27.060Z,25.40
2022-12-04T19:19:54.929Z,25.40
2022-12-04T19:22:23.695Z,25.40
2022-12-04T19:24:51.266Z,25.40
2022-12-04T19:27:19.880Z,25.30
2022-12-04T19:29:49.161Z,25.30
2022-12-04T19:32:16.995Z,25.30
2022-12-04T19:34:45.389Z,25.30
2022-12-04T19:37:13.188Z,25.20
2022-12-04T19:39:40.746Z,25.30
2022-12-04T19:42:08.280Z,25.20
2022-12-04T19:44:48.335Z,25.20
2022-12-04T19:47:17.228Z,25.20
2022-12-04T19:49:46.050Z,25.20
2022-12-04T19:52:14.457Z,25.10
2022-12-04T19:54:42.482Z,25.10
2022-12-04T19:57:10.234Z,25.10
2022-12-04T19:59:43.043Z,25.10
2022-12-04T20:02:13.608Z,25.00
2022-12-04T20:04:41.265Z,25.00
2022-12-04T20:07:08.819Z,25.00
2022-12-04T20:09:36.931Z,24.90
2022-12-04T20:12:05.365Z,24.90
2022-12-04T20:14:32.969Z,24.90
2022-12-04T20:17:01.945Z,24.90
2022-12-04T20:19:29.504Z,24.90
2022-12-04T20:21:59.498Z,24.90
2022-12-04T20:24:28.829Z,24.90
2022-12-04T20:26:57.115Z,24.90
2022-12-04T20:29:25.530Z,24.90
2022-12-04T20:31:53.434Z,24.90
2022-12-04T20:34:21.074Z,24.80
2022-12-04T20:36:49.685Z,24.90
2022-12-04T20:39:18.137Z,24.80
2022-12-04T20:41:46.585Z,24.80
2022-12-04T20:44:15.297Z,24.80
2022-12-04T20:46:43.092Z,24.80
2022-12-04T20:49:22.553Z,24.80
2022-12-04T20:51:51.172Z,24.80
2022-12-04T20:54:22.312Z,24.80
2022-12-04T20:56:52.256Z,24.80
2022-12-04T20:59:20.627Z,24.80
2022-12-04T21:01:50.199Z,24.80
2022-12-04T21:04:19.508Z,24.70
2022-12-04T21:06:47.259Z,24.70
2022-12-04T21:09:16.633Z,24.60
2022-12-04T21:11:45.492Z,24.60
2022-12-04T21:14:38.573Z,24.60
2022-12-04T21:17:07.672Z,24.60
2022-12-04T21:19:36.076Z,24.50
2022-12-04T21:22:04.734Z,24.50
2022-12-04T21:24:37.207Z,24.50
2022-12-04T21:27:06.081Z,24.40
2022-12-04T21:29:35.221Z,24.40
2022-12-04T21:32:02.920Z,24.30
2022-12-04T21:34:31.299Z,24.30
2022-12-04T21:36:58.916Z,24.30
2022-12-04T21:39:26.786Z,24.30
2022-12-04T21:42:12.651Z,24.30
2022-12-04T21:44:40.282Z,24.20
2022-12-04T21:47:07.840Z,24.20
2022-12-04T21:49:35.344Z,24.30
2022-12-04T21:52:02.901Z,24.30
2022-12-04T21:54:30.805Z,24.30
2022-12-04T21:56:59.113Z,24.30
2022-12-04T21:59:27.118Z,24.20
2022-12-04T22:01:54.774Z,24.20
2022-12-04T22:04:22.490Z,24.20
2022-12-04T22:06:50.984Z,24.10
2022-12-04T22:09:20.059Z,24.10
2022-12-04T22:11:48.388Z,24.10
2022-12-04T22:14:16.781Z,24.10
2022-12-04T22:16:45.254Z,24.10
2022-12-04T22:19:14.033Z,24.10
2022-12-04T22:21:42.254Z,24.10
2022-12-04T22:24:10.821Z,24.10
2022-12-04T22:26:38.500Z,24.10
2022-12-04T22:29:27.316Z,24.10
2022-12-04T22:31:54.082Z,24.20
2022-12-04T22:34:22.520Z,24.10
2022-12-04T22:36:50.656Z,24.10
2022-12-04T22:39:19.020Z,24.10
2022-12-04T22:41:47.524Z,24.00
2022-12-04T22:44:15.805Z,24.00
2022-12-04T22:46:43.462Z,24.00
2022-12-04T22:49:11.784Z,24.00
2022-12-04T22:51:39.336Z,24.00
2022-12-04T22:54:08.281Z,24.00
2022-12-04T22:56:36.661Z,24.00
2022-12-04T22:59:04.519Z,24.00
2022-12-04T23:01:33.909Z,23.90
2022-12-04T23:04:02.952Z,24.00
2022-12-04T23:06:32.259Z,23.90
2022-12-04T23:09:05.000Z,24.00
2022-12-04T23:11:33.392Z,23.90
2022-12-04T23:14:03.303Z,24.00
2022-12-04T23:16:32.159Z,23.90
2022-12-04T23:19:00.239Z,23.90
2022-12-04T23:21:28.371Z,23.90
2022-12-04T23:23:56.373Z,23.90
2022-12-04T23:26:25.697Z,23.80
2022-12-04T23:28:54.204Z,23.90
2022-12-04T23:31:21.959Z,23.90
2022-12-04T23:33:50.418Z,23.80
2022-12-04T23:36:18.238Z,23.90
2022-12-04T23:38:45.786Z,23.90
2022-12-04T23:41:17.549Z,23.90
2022-12-04T23:43:45.849Z,23.90
2022-12-04T23:46:14.171Z,23.90
2022-12-04T23:48:42.689Z,23.90
2022-12-04T23:51:10.786Z,23.80
2022-12-04T23:53:38.579Z,23.80
2022-12-04T23:56:08.001Z,23.80
2022-12-04T23:58:36.965Z,23.80
